Etusivu
METAR-TAF:

METAR-TAF

Lentoasemat :

Odessa-Schlemeyer Field

Odessa, Texas, Yhdysvallat

Leveyspiiri: 31-55-17N, Pituuspiiri: 102-23-30W, korkeus merenpinnasta: 914 m

Tämänhetkinen sää

Tämä raportti tehtiin 1 tunti ja 9 minuuttia sitten, kello 09.53 UTC
Tuuli 7 kn etelästä
Lämpötila 13°C
Kosteus 47%
Ilmanpaine 1018 hPa
Näkyvyys: 16.1 km
selkeää

METAR: KODO 200953Z AUTO 18007KT 10SM CLR 13/02 A3005 RMK AO2 SLP146 T01280022

Aika: 06:02 (11:02 UTC)


TAF: puuttuu

Säähavainnot ja -ennusteet yli 4000 lentoasemalta (METAR- ja TAF-raportit).

Käytössä olevat sääasemat on merkitty karttaan keltaisilla ja punaisilla pisteillä.

Aseta hiiri pisteen päälle nähdäksesi sääaseman nimen.

Klikkaa sitten nähdäksesi säähavainnot ja -ennusteet.

Kartan vaihtaminen: klikkaa mustalla rastilla varustettuja vihreitä pisteitä, niin voit zoomata sisään; viivalla varustettua vihreää pistettä, niin voit zoomata ulos tai vihreitä nuolia, niin pääset viereisille kartoille.


METAR-TAF: